»·PEaware :: N511H KFUL-KSLI

N511H :: KFUL-KSLI

FLIGHT INFORMATION

Flight Status: Arrived
Operator: Privately registered:
United States
More flights under this callsign
Pilot: Edward H. (2712)
Aircraft: Unknown
(B429)
More flights by this aircraft type
Origin: KFUL Fullerton Mun
United States
Destination: KSLI Los Alamitos AAF
United States
More flights between these airports :: More routes between these airports
Route: +
File this flight plan on PilotEdge
Remarks:
Altitude:
(Current/Filed)
0ft
Speed:
(Current/Filed)
0kts
Departed: 14-Jul-18 11:11 AM
Arrived: 14-Jul-18 11:59 AM
Distance/Time
Traveled:
6nm/0:47
Distance/Time
To Go:
Arrived

Flight Plot

Page will automatically refresh every two minutes.

Flight plan parsing failed; only flown route is shown


Map Options




Map Legend


Flown Route
Filed Route
Departure Airport
Arrival Airport
Navaid (VOR, NDB)
Fix

Horizontal Profiles

Position Reports

Time Latitude Longitude Heading Altitude Ground
Speed
14-Jul-18 11:11 33.502422 -117.747534 130 1557ft 149kts
14-Jul-18 11:12 33.476605 -117.709934 130 1563ft 145kts
14-Jul-18 11:13 33.449549 -117.674386 134 1575ft 145kts
14-Jul-18 11:14 33.422026 -117.639607 135 1576ft 144kts
14-Jul-18 11:15 33.392948 -117.606966 136 1579ft 144kts
14-Jul-18 11:16 33.364789 -117.572829 136 1571ft 144kts
14-Jul-18 11:17 33.336765 -117.541398 137 1575ft 143kts
14-Jul-18 11:18 33.307321 -117.509631 138 1571ft 142kts
14-Jul-18 11:19 33.277910 -117.478878 138 1566ft 140kts
14-Jul-18 11:20 33.248449 -117.449026 139 1568ft 138kts
14-Jul-18 11:21 33.219083 -117.419927 139 1567ft 136kts
14-Jul-18 11:22 33.190052 -117.389160 130 996ft 144kts
14-Jul-18 11:23 33.165700 -117.354252 126 1181ft 125kts
14-Jul-18 11:24 33.148878 -117.317210 115 969ft 129kts
14-Jul-18 11:25 33.140763 -117.278913 93 1114ft 112kts
14-Jul-18 11:26 33.129612 -117.271520 263 468ft 72kts
14-Jul-18 11:27 33.127795 -117.278204 134 337ft 5kts
14-Jul-18 11:28 33.127784 -117.278186 133 336ft 0kts
14-Jul-18 11:29 33.127161 -117.277121 2 336ft 0kts
14-Jul-18 11:30 33.127161 -117.277121 3 336ft 0kts
14-Jul-18 11:31 33.127161 -117.277121 3 336ft 0kts
14-Jul-18 11:32 33.127161 -117.277121 3 336ft 0kts
14-Jul-18 11:33 33.127161 -117.277121 3 336ft 0kts
14-Jul-18 11:34 33.127815 -117.278032 289 336ft 0kts
14-Jul-18 11:35 33.127821 -117.278045 293 338ft 3kts
14-Jul-18 11:36 33.124534 -117.308183 265 385ft 152kts
14-Jul-18 11:37 33.136316 -117.352307 325 629ft 148kts
14-Jul-18 11:38 33.175057 -117.372945 332 596ft 151kts
14-Jul-18 11:39 33.207964 -117.402877 319 590ft 150kts
14-Jul-18 11:40 33.240963 -117.433828 319 589ft 151kts
14-Jul-18 11:41 33.274396 -117.464116 319 598ft 151kts
14-Jul-18 11:42 33.308398 -117.494397 319 589ft 151kts
14-Jul-18 11:43 33.340512 -117.526142 309 587ft 149kts
14-Jul-18 11:44 33.368408 -117.562282 309 602ft 147kts
14-Jul-18 11:45 33.392885 -117.601011 303 606ft 144kts
14-Jul-18 11:46 33.416006 -117.640510 303 591ft 147kts
14-Jul-18 11:47 33.438759 -117.681021 302 603ft 146kts
14-Jul-18 11:48 33.463954 -117.720494 307 598ft 149kts
14-Jul-18 11:49 33.488432 -117.758649 306 604ft 152kts
14-Jul-18 11:50 33.514730 -117.798609 310 604ft 153kts
14-Jul-18 11:51 33.539624 -117.833027 310 607ft 154kts
14-Jul-18 11:52 33.567256 -117.871833 309 595ft 155kts
14-Jul-18 11:53 33.594938 -117.911479 309 587ft 154kts
14-Jul-18 11:54 33.622481 -117.951198 309 592ft 156kts
14-Jul-18 11:55 33.644134 -117.996545 299 602ft 157kts
14-Jul-18 11:56 33.675143 -118.033741 327 597ft 160kts
14-Jul-18 11:57 33.716719 -118.051187 341 784ft 146kts
14-Jul-18 11:58 33.753998 -118.046608 344 1597ft 106kts
14-Jul-18 11:59 33.788258 -118.034232 26 995ft 149kts
14-Jul-18 12:00 33.792649 -118.051233 270 120ft 34kts
14-Jul-18 12:01 33.792686 -118.052653 267 40ft 0kts
14-Jul-18 12:02 33.792686 -118.052653 267 40ft 0kts
14-Jul-18 12:03 33.792686 -118.052653 267 40ft 0kts
14-Jul-18 12:04 33.792686 -118.052653 267 40ft 0kts
14-Jul-18 12:05 33.792686 -118.052653 267 40ft 0kts
14-Jul-18 12:06 33.792447 -118.054382 180 40ft 0kts

Navigation Log

Ident Type
Flight plan parsing failed, navigation log unavailable